Time;durP1;ratioP1;P1;durP2;ratioP2;P2;SDS_P1;SDS_P2;PMS_P1;PMS_P2;Temp;Humidity;BMP_temperature;BMP_pressure;BME280_temperature;BME280_humidity;BME280_pressure;Samples;Min_cycle;Max_cycle;Signal;HPM_P1;HPM_P2
2022/09/24 00:28:37;;;;;;;24.98;19.27;;;;;;;;;;4988579;28;20058;-69
2022/09/24 00:31:05;;;;;;;23.40;18.38;;;;;;;;;;4952890;28;20523;-69
2022/09/24 00:33:33;;;;;;;27.27;20.27;;;;;;;;;;4987336;28;20133;-69
2022/09/24 00:36:03;;;;;;;26.58;21.08;;;;;;;;;;4988210;28;20180;-69
2022/09/24 00:38:32;;;;;;;23.05;18.33;;;;;;;;;;4984728;28;20527;-69
2022/09/24 00:40:59;;;;;;;22.23;18.70;;;;;;;;;;4989579;28;20188;-69
2022/09/24 00:43:25;;;;;;;23.58;18.98;;;;;;;;;;4969907;28;20043;-69
2022/09/24 00:45:54;;;;;;;26.17;19.88;;;;;;;;;;4988988;28;20199;-69
2022/09/24 00:48:20;;;;;;;22.23;19.13;;;;;;;;;;4981521;28;20058;-69
2022/09/24 00:50:47;;;;;;;22.80;18.85;;;;;;;;;;4989695;28;20053;-69
2022/09/24 00:53:15;;;;;;;26.58;20.27;;;;;;;;;;4988384;28;20039;-69
2022/09/24 00:59:23;;;;;;;29.45;22.90;;;;;;;;;;4989787;28;20092;-69
2022/09/24 01:01:52;;;;;;;26.58;19.17;;;;;;;;;;4989381;28;20535;-69
2022/09/24 01:04:20;;;;;;;28.17;24.23;;;;;;;;;;4990148;28;20381;-69
2022/09/24 01:06:47;;;;;;;38.20;27.08;;;;;;;;;;4989748;28;20435;-69
2022/09/24 01:09:13;;;;;;;33.20;24.65;;;;;;;;;;4987999;28;20043;-70
2022/09/24 01:11:50;;;;;;;35.40;27.23;;;;;;;;;;4972086;28;20389;-69
2022/09/24 01:14:35;;;;;;;32.58;26.40;;;;;;;;;;4988821;28;20039;-69
2022/09/24 01:17:17;;;;;;;31.52;26.20;;;;;;;;;;4971699;28;20058;-69
2022/09/24 01:20:02;;;;;;;26.52;23.48;;;;;;;;;;4987082;28;20377;-69
2022/09/24 01:22:31;;;;;;;31.13;23.27;;;;;;;;;;4989330;28;20058;-69
2022/09/24 01:25:16;;;;;;;33.28;25.95;;;;;;;;;;4987803;28;20504;-69
2022/09/24 01:27:55;;;;;;;29.65;23.17;;;;;;;;;;4970692;28;20051;-69
2022/09/24 01:30:21;;;;;;;25.58;21.08;;;;;;;;;;4969016;28;20087;-69
2022/09/24 01:32:50;;;;;;;27.83;21.83;;;;;;;;;;4988716;28;20510;-69
2022/09/24 01:35:23;;;;;;;37.10;27.35;;;;;;;;;;4975242;28;20050;-69
2022/09/24 01:37:52;;;;;;;27.73;22.00;;;;;;;;;;4974362;28;20046;-69
2022/09/24 01:40:20;;;;;;;29.05;22.17;;;;;;;;;;4975693;28;20525;-69
2022/09/24 01:42:47;;;;;;;29.27;22.83;;;;;;;;;;4992843;28;20053;-69
2022/09/24 01:45:16;;;;;;;26.02;20.30;;;;;;;;;;4973604;28;20158;-69
2022/09/24 01:47:44;;;;;;;30.08;22.48;;;;;;;;;;4993009;28;20145;-69
2022/09/24 01:50:12;;;;;;;24.25;19.55;;;;;;;;;;4975262;28;20046;-69
2022/09/24 01:52:46;;;;;;;28.33;18.98;;;;;;;;;;4988548;28;20152;-69
2022/09/24 01:55:14;;;;;;;23.60;17.25;;;;;;;;;;4971174;28;20134;-69
2022/09/24 01:57:46;;;;;;;28.02;18.73;;;;;;;;;;4992842;28;20047;-69
2022/09/24 02:00:14;;;;;;;23.65;17.38;;;;;;;;;;4991078;28;20056;-69
2022/09/24 02:02:42;;;;;;;22.73;16.15;;;;;;;;;;4992511;28;20057;-69
2022/09/24 02:05:18;;;;;;;22.00;15.90;;;;;;;;;;4992255;28;20062;-69
2022/09/24 02:07:57;;;;;;;17.48;15.27;;;;;;;;;;4993282;28;20539;-69
2022/09/24 02:10:24;;;;;;;21.48;15.45;;;;;;;;;;4992837;28;20043;-69
2022/09/24 02:12:52;;;;;;;20.73;15.52;;;;;;;;;;4992476;28;20109;-69
2022/09/24 02:15:25;;;;;;;14.77;11.38;;;;;;;;;;4990993;28;20038;-69
2022/09/24 02:17:54;;;;;;;17.83;11.43;;;;;;;;;;4992136;28;20074;-69
